Time;durP1;ratioP1;P1;durP2;ratioP2;P2;SDS_P1;SDS_P2;PMS_P1;PMS_P2;Temp;Humidity;BMP_temperature;BMP_pressure;BME280_temperature;BME280_humidity;BME280_pressure;Samples;Min_cycle;Max_cycle;Signal;HPM_P1;HPM_P2
2022/12/06 00:01:25;;;;;;;39.23;19.13;;;1.60;99.90;;;;;;5012355;28;20076;-61
2022/12/06 00:03:56;;;;;;;44.17;19.80;;;1.60;99.90;;;;;;5012117;28;20049;-61
2022/12/06 00:06:24;;;;;;;41.37;19.77;;;1.60;99.90;;;;;;5012095;28;20126;-61
2022/12/06 00:08:51;;;;;;;44.17;20.70;;;1.60;99.90;;;;;;5011912;28;20546;-61
2022/12/06 00:11:22;;;;;;;41.23;20.27;;;1.60;99.90;;;;;;5012129;28;20030;-61
2022/12/06 00:13:56;;;;;;;50.03;21.00;;;1.60;99.90;;;;;;5012077;28;20021;-61
2022/12/06 00:16:23;;;;;;;41.73;20.77;;;1.70;99.90;;;;;;5025103;23;20022;-49
2022/12/06 00:18:49;;;;;;;45.03;20.10;;;1.70;99.90;;;;;;4990824;28;20562;-49
2022/12/06 00:21:20;;;;;;;50.57;21.50;;;1.70;99.90;;;;;;4992466;28;20030;-50
2022/12/06 00:23:51;;;;;;;41.40;20.57;;;1.70;99.90;;;;;;4992481;28;20122;-50
2022/12/06 00:26:17;;;;;;;45.17;20.37;;;1.70;99.90;;;;;;4991983;28;20482;-49
2022/12/06 00:28:44;;;;;;;45.83;21.13;;;1.80;99.90;;;;;;4991936;28;20129;-49
2022/12/06 00:31:20;;;;;;;41.47;20.73;;;1.80;99.90;;;;;;4991996;28;20102;-48
2022/12/06 00:33:46;;;;;;;47.97;21.17;;;1.70;99.90;;;;;;4992356;28;20403;-51
2022/12/06 00:36:15;;;;;;;48.37;21.33;;;1.80;99.90;;;;;;4992029;28;20027;-49
2022/12/06 00:38:41;;;;;;;46.90;21.52;;;1.80;99.90;;;;;;4991838;28;20034;-50
2022/12/06 00:41:09;;;;;;;44.27;20.40;;;1.80;99.90;;;;;;4991956;28;20041;-51
2022/12/06 00:43:36;;;;;;;41.10;20.47;;;1.80;99.90;;;;;;4991981;28;20364;-48
2022/12/06 00:46:04;;;;;;;51.10;22.30;;;1.80;99.90;;;;;;4991897;28;20030;-50
2022/12/06 00:48:30;;;;;;;45.10;20.87;;;1.80;99.90;;;;;;4991528;28;20026;-53
2022/12/06 00:50:56;;;;;;;40.13;19.70;;;1.80;99.90;;;;;;4990516;28;20030;-51
2022/12/06 00:53:22;;;;;;;48.23;21.73;;;1.80;99.90;;;;;;4991871;28;20030;-49
2022/12/06 00:55:49;;;;;;;41.57;19.33;;;1.80;99.90;;;;;;4991833;28;20053;-50
2022/12/06 00:58:15;;;;;;;49.63;20.23;;;1.80;99.90;;;;;;4991300;28;20100;-50
2022/12/06 01:00:41;;;;;;;41.27;19.90;;;1.80;99.90;;;;;;4991627;28;20037;-51
2022/12/06 01:03:07;;;;;;;44.53;20.27;;;1.80;99.90;;;;;;4991567;28;20468;-53
2022/12/06 01:05:38;;;;;;;48.83;19.53;;;1.70;99.90;;;;;;4991066;28;20030;-54
2022/12/06 01:08:04;;;;;;;43.77;20.03;;;1.80;99.90;;;;;;4991161;28;20073;-53
2022/12/06 01:10:30;;;;;;;39.13;18.73;;;1.80;99.90;;;;;;4991399;28;20130;-49
2022/12/06 01:12:55;;;;;;;46.40;20.60;;;1.80;99.90;;;;;;4991272;28;20034;-52
2022/12/06 01:15:21;;;;;;;46.13;21.07;;;1.80;99.90;;;;;;4991744;28;20050;-52
2022/12/06 01:17:47;;;;;;;45.23;19.73;;;1.70;99.90;;;;;;4991012;28;20459;-52
2022/12/06 01:20:12;;;;;;;43.47;20.93;;;1.60;99.90;;;;;;4991152;28;20031;-53
2022/12/06 01:22:38;;;;;;;52.07;20.90;;;1.70;99.90;;;;;;4991349;28;20504;-51
2022/12/06 01:25:04;;;;;;;45.00;19.30;;;1.70;99.90;;;;;;4991433;28;20034;-52
2022/12/06 01:27:30;;;;;;;45.03;19.30;;;1.70;99.90;;;;;;4990995;28;20030;-53
2022/12/06 01:29:56;;;;;;;42.57;18.80;;;1.70;99.90;;;;;;4990918;28;20054;-53
2022/12/06 01:32:22;;;;;;;39.20;18.70;;;1.70;99.90;;;;;;4991426;28;20038;-55
2022/12/06 01:34:51;;;;;;;43.10;18.97;;;1.70;99.90;;;;;;4991178;28;20407;-54
2022/12/06 01:37:17;;;;;;;43.80;19.70;;;1.70;99.90;;;;;;4991054;28;20034;-53
2022/12/06 01:39:44;;;;;;;41.87;19.13;;;1.70;99.90;;;;;;4990973;28;20038;-50
2022/12/06 01:42:14;;;;;;;49.47;21.50;;;1.60;99.90;;;;;;4991100;28;20030;-52
2022/12/06 01:44:46;;;;;;;43.30;19.37;;;1.60;99.90;;;;;;4989877;28;20502;-49
2022/12/06 01:47:14;;;;;;;46.33;19.80;;;1.60;99.90;;;;;;4990851;28;20030;-54
2022/12/06 01:49:42;;;;;;;44.27;19.33;;;1.70;99.90;;;;;;4990713;28;20058;-50
2022/12/06 01:52:12;;;;;;;50.83;20.90;;;1.60;99.90;;;;;;4991072;28;20026;-53
2022/12/06 01:54:39;;;;;;;45.30;19.95;;;1.60;99.90;;;;;;4991011;28;20034;-52
2022/12/06 01:57:07;;;;;;;44.30;20.80;;;1.60;99.90;;;;;;4990738;28;20022;-53
2022/12/06 01:59:34;;;;;;;45.65;19.70;;;1.60;99.90;;;;;;4990775;28;20511;-51
2022/12/06 02:02:00;;;;;;;49.77;19.67;;;1.70;99.90;;;;;;4991045;28;20046;-53
2022/12/06 02:04:27;;;;;;;48.77;20.77;;;1.70;99.90;;;;;;4990855;28;20037;-52
2022/12/06 02:06:54;;;;;;;46.70;20.10;;;1.70;99.90;;;;;;4989004;28;20569;-54
2022/12/06 02:09:21;;;;;;;50.10;20.53;;;1.70;99.90;;;;;;4990764;28;20054;-54
2022/12/06 02:11:47;;;;;;;54.60;22.80;;;1.70;99.90;;;;;;4989431;28;20045;-54
2022/12/06 02:14:17;;;;;;;48.30;21.17;;;1.70;99.90;;;;;;4989879;28;20117;-53
2022/12/06 02:17:02;;;;;;;49.33;20.70;;;1.70;99.90;;;;;;4991385;28;20089;-52
2022/12/06 02:19:46;;;;;;;56.30;22.63;;;1.70;99.90;;;;;;4994359;28;20398;-54
2022/12/06 02:22:30;;;;;;;59.23;23.50;;;1.70;99.90;;;;;;4994495;28;20030;-53
2022/12/06 02:25:04;;;;;;;65.73;22.03;;;1.70;99.90;;;;;;4992425;28;20484;-52
2022/12/06 02:27:39;;;;;;;57.60;22.10;;;1.60;99.90;;;;;;4994197;28;20039;-54
2022/12/06 02:30:38;;;;;;;54.07;21.80;;;1.70;99.90;;;;;;4994185;28;20030;-51
2022/12/06 02:33:08;;;;;;;54.83;21.17;;;1.60;99.90;;;;;;4994350;28;20027;-51
2022/12/06 02:35:39;;;;;;;50.63;20.67;;;1.70;99.90;;;;;;4994499;28;20098;-51
2022/12/06 02:38:16;;;;;;;44.97;20.50;;;1.70;99.90;;;;;;4993901;28;20091;-55
2022/12/06 02:40:47;;;;;;;55.40;22.20;;;1.70;99.90;;;;;;4994328;28;20646;-54
2022/12/06 02:43:28;;;;;;;62.30;22.97;;;1.70;99.90;;;;;;4994226;28;20038;-51
2022/12/06 02:45:58;;;;;;;53.07;21.77;;;1.70;99.90;;;;;;4994223;28;20627;-51
2022/12/06 02:48:25;;;;;;;53.27;22.03;;;1.70;99.90;;;;;;4993781;28;20069;-51
2022/12/06 02:50:57;;;;;;;53.33;22.10;;;1.70;99.90;;;;;;4993867;28;20041;-52
2022/12/06 02:53:26;;;;;;;55.57;23.10;;;1.80;99.90;;;;;;4994250;28;20034;-50
2022/12/06 02:55:52;;;;;;;58.63;23.47;;;1.80;99.90;;;;;;4994082;28;20022;-51
2022/12/06 02:58:18;;;;;;;58.70;22.37;;;1.80;99.90;;;;;;4993596;28;20497;-52
2022/12/06 03:00:48;;;;;;;62.57;23.37;;;1.80;99.90;;;;;;4993827;28;20034;-53
2022/12/06 03:03:39;;;;;;;50.90;21.10;;;1.90;99.90;;;;;;4993739;28;20045;-51
2022/12/06 03:06:15;;;;;;;53.57;21.43;;;1.90;99.90;;;;;;4993767;28;20467;-48
2022/12/06 03:08:46;;;;;;;55.63;21.50;;;1.80;99.90;;;;;;4993401;28;20035;-52
2022/12/06 03:11:12;;;;;;;60.53;23.00;;;1.80;99.90;;;;;;4993641;28;20032;-51
2022/12/06 03:13:59;;;;;;;79.30;25.00;;;1.80;99.90;;;;;;4993522;28;20026;-53
2022/12/06 03:16:33;;;;;;;60.07;22.80;;;1.80;99.90;;;;;;4993473;28;20093;-52
2022/12/06 03:19:10;;;;;;;63.00;23.93;;;1.80;99.90;;;;;;4993561;28;20458;-52
2022/12/06 03:21:42;;;;;;;61.83;22.47;;;1.80;99.90;;;;;;4993635;28;20106;-50
2022/12/06 03:24:12;;;;;;;70.70;24.60;;;1.80;99.90;;;;;;4993108;28;20061;-54
2022/12/06 03:26:39;;;;;;;84.77;25.70;;;1.80;99.90;;;;;;4993045;28;20117;-52
2022/12/06 03:29:09;;;;;;;82.97;26.73;;;1.80;99.90;;;;;;4992380;28;20097;-51
2022/12/06 03:31:38;;;;;;;64.82;25.13;;;1.70;99.90;;;;;;4993202;28;20463;-49
2022/12/06 03:34:20;;;;;;;75.78;24.63;;;1.80;99.90;;;;;;4993239;28;20038;-49
2022/12/06 03:36:48;;;;;;;85.87;25.43;;;1.80;99.90;;;;;;4992746;28;20038;-49
2022/12/06 03:39:22;;;;;;;97.10;26.53;;;1.80;99.90;;;;;;4992815;28;20034;-51
2022/12/06 03:41:56;;;;;;;67.47;24.33;;;1.80;99.90;;;;;;4993092;28;20117;-49
2022/12/06 03:44:23;;;;;;;64.87;24.10;;;1.80;99.90;;;;;;4992972;28;20038;-53
2022/12/06 03:46:53;;;;;;;72.70;25.40;;;1.90;99.90;;;;;;4992701;28;20068;-49
2022/12/06 03:49:24;;;;;;;95.27;26.30;;;1.90;99.90;;;;;;4992774;28;20031;-49
2022/12/06 03:51:50;;;;;;;75.10;26.00;;;1.90;99.90;;;;;;4993033;28;20434;-51
2022/12/06 03:54:16;;;;;;;79.53;26.80;;;1.90;99.90;;;;;;4992876;28;20057;-49
2022/12/06 03:56:42;;;;;;;71.90;26.17;;;2.00;99.90;;;;;;4992723;28;20034;-52
2022/12/06 03:59:09;;;;;;;70.70;25.67;;;2.00;99.90;;;;;;4992790;28;20084;-51
2022/12/06 04:01:36;;;;;;;63.00;24.40;;;2.00;99.90;;;;;;4992755;28;20058;-49
2022/12/06 04:04:02;;;;;;;64.07;24.57;;;2.00;99.90;;;;;;4992817;28;20471;-48
2022/12/06 04:06:27;;;;;;;84.33;26.13;;;2.10;99.90;;;;;;4992500;28;20035;-52
2022/12/06 04:09:50;;;;;;;79.03;26.23;;;2.00;99.90;;;;;;4992599;28;20038;-51
2022/12/06 04:11:39;;;;;;;85.10;26.87;;;2.00;99.90;;;;;;4992421;28;20041;-50
2022/12/06 04:14:05;;;;;;;86.87;28.03;;;1.90;99.90;;;;;;4992583;28;20030;-53
2022/12/06 04:19:15;;;;;;;67.87;25.13;;;2.00;99.90;;;;;;4992397;28;20105;-49
2022/12/06 04:24:24;;;;;;;85.20;26.60;;;2.00;99.90;;;;;;4992369;28;20084;-53
2022/12/06 04:26:50;;;;;;;77.30;26.33;;;2.00;99.90;;;;;;4992177;28;20109;-50
2022/12/06 04:40:13;;;;;;;75.60;25.87;;;2.00;99.90;;;;;;4991902;28;20129;-52
2022/12/06 04:45:23;;;;;;;73.43;26.50;;;2.10;99.90;;;;;;4991646;28;20038;-53
2022/12/06 04:47:49;;;;;;;64.73;25.10;;;2.10;99.90;;;;;;4991667;28;20041;-51
2022/12/06 04:50:14;;;;;;;73.97;27.70;;;2.10;99.90;;;;;;4991593;28;20109;-50
2022/12/06 04:52:40;;;;;;;66.83;24.93;;;2.10;99.90;;;;;;4991977;28;20377;-52
2022/12/06 04:55:07;;;;;;;78.87;27.90;;;2.10;99.90;;;;;;4991943;28;20023;-54
2022/12/06 04:57:32;;;;;;;68.07;26.83;;;2.10;99.90;;;;;;4991659;28;20472;-53
2022/12/06 04:59:58;;;;;;;75.37;28.17;;;2.10;99.90;;;;;;4991418;28;20060;-49
2022/12/06 05:02:24;;;;;;;70.30;28.37;;;2.20;99.90;;;;;;4991842;28;20399;-51
2022/12/06 05:04:49;;;;;;;75.73;26.87;;;2.20;99.90;;;;;;4990497;28;20125;-49
2022/12/06 05:07:15;;;;;;;69.23;26.43;;;2.20;99.90;;;;;;4991397;28;20479;-51
2022/12/06 05:09:41;;;;;;;68.90;27.03;;;2.10;99.90;;;;;;4991306;28;20046;-50
2022/12/06 05:12:07;;;;;;;66.70;27.37;;;2.10;99.90;;;;;;4991751;28;20036;-50
2022/12/06 05:14:33;;;;;;;74.17;30.93;;;2.20;99.90;;;;;;4990338;28;20026;-50
2022/12/06 05:16:59;;;;;;;70.67;29.90;;;2.20;99.90;;;;;;4991237;28;20035;-50
2022/12/06 05:19:24;;;;;;;64.80;29.97;;;2.20;99.90;;;;;;4991469;28;20034;-52
2022/12/06 05:21:50;;;;;;;88.23;45.97;;;2.20;99.90;;;;;;4991355;28;20058;-50
2022/12/06 05:24:16;;;;;;;94.20;50.03;;;2.30;99.90;;;;;;4991567;28;20068;-51
2022/12/06 05:26:42;;;;;;;89.23;40.67;;;2.30;99.90;;;;;;4991166;28;20125;-50
2022/12/06 05:29:07;;;;;;;92.13;45.80;;;2.30;99.90;;;;;;4991258;28;20034;-50
2022/12/06 05:31:33;;;;;;;76.27;39.27;;;2.30;99.90;;;;;;4991261;28;20153;-51
2022/12/06 05:33:59;;;;;;;78.40;40.13;;;2.40;99.90;;;;;;4991459;28;20476;-52
2022/12/06 05:36:26;;;;;;;63.80;31.97;;;2.40;99.90;;;;;;4991005;28;20042;-55
2022/12/06 05:38:53;;;;;;;66.40;32.87;;;2.50;99.90;;;;;;4990096;28;20045;-51
2022/12/06 05:41:20;;;;;;;69.10;31.10;;;2.50;99.90;;;;;;4984353;28;20030;-51
2022/12/06 05:43:46;;;;;;;58.40;28.43;;;2.50;99.90;;;;;;4981686;28;20398;-49
2022/12/06 05:46:12;;;;;;;59.27;28.90;;;2.50;99.90;;;;;;4989968;28;20027;-53
2022/12/06 05:48:38;;;;;;;64.20;26.80;;;2.50;99.90;;;;;;4989069;28;20339;-51
2022/12/06 05:51:04;;;;;;;60.40;26.87;;;2.50;99.90;;;;;;4991310;28;20462;-53
2022/12/06 05:53:29;;;;;;;66.50;26.67;;;2.40;99.90;;;;;;4993761;28;20142;-51
2022/12/06 05:55:55;;;;;;;60.50;26.87;;;2.40;99.90;;;;;;4993982;28;20031;-52
2022/12/06 05:58:21;;;;;;;66.90;27.43;;;2.40;99.90;;;;;;4992486;28;20050;-52
2022/12/06 06:00:48;;;;;;;65.40;27.17;;;2.40;99.90;;;;;;4993973;28;20038;-50
2022/12/06 06:03:15;;;;;;;71.33;29.47;;;2.40;99.90;;;;;;4993684;28;20053;-53
2022/12/06 06:05:50;;;;;;;66.33;26.57;;;2.40;99.90;;;;;;4992666;28;20125;-50
2022/12/06 06:08:17;;;;;;;57.17;25.90;;;2.40;99.90;;;;;;4993024;28;20065;-51
2022/12/06 06:10:43;;;;;;;62.80;27.27;;;2.50;99.90;;;;;;4993391;28;20026;-52
2022/12/06 06:13:09;;;;;;;57.93;26.00;;;2.50;99.90;;;;;;4992970;28;20031;-52
2022/12/06 06:15:35;;;;;;;61.43;27.23;;;2.60;99.90;;;;;;4993402;28;20062;-50
2022/12/06 06:18:01;;;;;;;65.10;27.10;;;2.60;99.90;;;;;;4992697;28;20073;-55
2022/12/06 06:20:26;;;;;;;61.80;26.40;;;2.70;99.90;;;;;;4993298;28;20030;-53
2022/12/06 06:22:53;;;;;;;67.07;26.30;;;2.70;99.90;;;;;;4993442;28;20122;-52
2022/12/06 06:25:19;;;;;;;60.40;24.80;;;2.70;99.90;;;;;;4993599;28;20027;-51
2022/12/06 06:27:45;;;;;;;66.50;26.10;;;2.70;99.90;;;;;;4991085;28;20418;-52
2022/12/06 06:30:11;;;;;;;61.17;25.13;;;2.80;99.90;;;;;;4993140;28;20121;-50
2022/12/06 06:32:38;;;;;;;59.63;26.43;;;2.70;99.90;;;;;;4993103;28;20026;-51
2022/12/06 06:35:05;;;;;;;63.10;27.00;;;2.70;99.90;;;;;;4993485;28;20500;-54
2022/12/06 06:37:31;;;;;;;56.00;23.80;;;2.70;99.90;;;;;;4992655;28;20117;-49
2022/12/06 06:39:58;;;;;;;61.17;25.80;;;2.70;99.90;;;;;;4992962;28;20034;-51
2022/12/06 06:42:23;;;;;;;56.20;23.97;;;2.70;99.90;;;;;;4991777;28;20487;-52
2022/12/06 06:44:50;;;;;;;64.90;26.07;;;2.60;99.90;;;;;;4993270;28;20073;-50
2022/12/06 06:47:16;;;;;;;56.13;24.77;;;2.60;99.90;;;;;;4992418;28;20422;-53
2022/12/06 06:49:42;;;;;;;60.50;25.43;;;2.60;99.90;;;;;;4992637;28;20038;-50
2022/12/06 06:52:07;;;;;;;62.40;25.60;;;2.70;99.90;;;;;;4992737;28;20030;-52
2022/12/06 06:54:33;;;;;;;57.13;25.17;;;2.70;99.90;;;;;;4992437;28;20053;-47
2022/12/06 06:56:59;;;;;;;57.37;24.60;;;2.70;99.90;;;;;;5021679;23;20364;-52
2022/12/06 06:59:25;;;;;;;58.47;24.10;;;2.70;99.90;;;;;;5010845;28;20511;-53
2022/12/06 07:01:50;;;;;;;57.33;24.77;;;2.80;99.90;;;;;;5009424;28;20044;-50
2022/12/06 07:04:16;;;;;;;55.27;23.83;;;2.70;99.90;;;;;;5009393;28;20113;-53
2022/12/06 07:06:43;;;;;;;61.93;25.23;;;2.70;99.90;;;;;;5010468;28;20407;-49
2022/12/06 07:09:08;;;;;;;61.83;24.37;;;2.80;99.90;;;;;;5011021;28;20037;-49
2022/12/06 07:11:34;;;;;;;56.10;23.73;;;2.80;99.90;;;;;;5010787;28;20446;-52
2022/12/06 07:14:01;;;;;;;54.70;23.57;;;2.80;99.90;;;;;;5011160;28;20048;-48
2022/12/06 07:16:28;;;;;;;56.10;22.73;;;2.80;99.90;;;;;;5011371;28;20389;-49
2022/12/06 07:18:53;;;;;;;53.13;23.13;;;2.80;99.90;;;;;;5011556;28;20045;-49
2022/12/06 07:21:22;;;;;;;56.90;24.03;;;2.80;99.90;;;;;;5004986;28;20604;-50
2022/12/06 07:23:48;;;;;;;58.77;24.13;;;2.90;99.90;;;;;;5010764;28;20126;-50
2022/12/06 07:26:22;;;;;;;59.73;25.40;;;2.90;99.90;;;;;;5011391;28;20082;-47
2022/12/06 07:28:49;;;;;;;58.83;23.60;;;2.90;99.90;;;;;;5009598;28;20515;-53
2022/12/06 07:31:16;;;;;;;52.43;23.77;;;2.90;99.90;;;;;;5011065;28;20026;-54
2022/12/06 07:33:42;;;;;;;58.60;24.60;;;2.90;99.90;;;;;;5010783;28;20065;-57
2022/12/06 07:36:09;;;;;;;53.57;24.03;;;2.90;99.90;;;;;;5011089;28;20434;-53
2022/12/06 07:38:36;;;;;;;51.63;22.97;;;2.90;99.90;;;;;;5010285;28;20038;-49
2022/12/06 07:46:34;;;;;;;54.53;24.87;;;3.10;99.90;;;;;;5010592;28;20461;-46
2022/12/06 07:49:00;;;;;;;52.33;23.13;;;3.10;99.90;;;;;;5010392;28;20113;-45
2022/12/06 07:51:26;;;;;;;55.40;24.30;;;3.10;99.90;;;;;;5010581;28;20030;-46
2022/12/06 07:53:51;;;;;;;58.40;25.23;;;3.10;99.90;;;;;;5010513;28;20038;-47
2022/12/06 07:56:18;;;;;;;53.93;23.37;;;3.10;99.90;;;;;;5010501;28;20128;-48
2022/12/06 07:58:44;;;;;;;53.80;24.20;;;3.10;99.90;;;;;;5009748;28;20355;-49
2022/12/06 08:01:09;;;;;;;49.83;23.73;;;3.10;99.90;;;;;;5010696;28;20054;-49
2022/12/06 08:03:35;;;;;;;56.30;26.27;;;3.10;99.90;;;;;;5010476;28;20040;-47
2022/12/06 08:06:01;;;;;;;60.00;25.90;;;3.20;99.90;;;;;;5010534;28;20468;-48
2022/12/06 08:08:26;;;;;;;52.80;23.90;;;3.20;99.90;;;;;;5010092;28;20033;-49
2022/12/06 08:10:52;;;;;;;51.17;23.73;;;3.20;99.90;;;;;;5010445;28;20025;-48
2022/12/06 08:13:18;;;;;;;52.70;23.70;;;3.20;99.90;;;;;;5009159;28;20053;-48
2022/12/06 08:15:43;;;;;;;53.60;23.37;;;3.30;99.90;;;;;;5010378;28;20041;-48
2022/12/06 08:18:09;;;;;;;52.33;22.93;;;3.30;99.90;;;;;;5009996;28;20421;-50
2022/12/06 08:20:38;;;;;;;49.40;20.53;;;3.30;99.90;;;;;;5009900;28;20180;-48
2022/12/06 08:23:03;;;;;;;43.13;17.93;;;3.40;99.90;;;;;;5010362;28;20081;-46
2022/12/06 08:25:29;;;;;;;44.17;15.10;;;3.60;99.90;;;;;;5009956;28;20529;-48
2022/12/06 08:27:55;;;;;;;42.53;16.53;;;3.70;99.90;;;;;;5008532;28;20037;-46
2022/12/06 08:30:20;;;;;;;41.93;16.60;;;3.80;99.90;;;;;;5009675;28;20099;-45
2022/12/06 08:32:46;;;;;;;38.17;14.67;;;3.90;99.90;;;;;;5009904;28;20038;-47
2022/12/06 08:35:12;;;;;;;40.37;15.33;;;4.10;99.90;;;;;;5009991;28;20026;-48
2022/12/06 08:37:37;;;;;;;40.80;15.20;;;4.10;99.90;;;;;;5009691;28;20030;-49
2022/12/06 08:40:04;;;;;;;36.20;15.17;;;4.20;99.90;;;;;;5009859;28;20478;-50
2022/12/06 08:42:29;;;;;;;36.73;13.67;;;4.30;99.90;;;;;;5008679;28;20041;-51
2022/12/06 08:44:55;;;;;;;34.07;15.27;;;4.20;99.90;;;;;;5009812;28;20038;-46
2022/12/06 08:47:21;;;;;;;35.97;14.60;;;4.30;99.90;;;;;;5009349;28;20530;-50
2022/12/06 08:49:48;;;;;;;38.37;13.93;;;4.30;99.90;;;;;;5009345;28;20037;-48
2022/12/06 08:52:14;;;;;;;29.03;12.90;;;4.30;99.90;;;;;;5009731;28;20050;-50
2022/12/06 08:54:40;;;;;;;34.43;14.10;;;4.40;99.90;;;;;;5009628;28;20525;-46
2022/12/06 08:57:05;;;;;;;36.97;14.13;;;4.40;99.90;;;;;;5008504;28;20541;-48
2022/12/06 08:59:31;;;;;;;31.73;13.60;;;4.40;99.90;;;;;;5009444;28;20063;-46
2022/12/06 09:01:57;;;;;;;33.93;16.00;;;4.40;99.90;;;;;;5009256;28;20033;-47
2022/12/06 09:04:23;;;;;;;33.17;12.87;;;4.40;99.90;;;;;;5009216;28;20097;-47
2022/12/06 09:06:48;;;;;;;31.33;12.77;;;4.40;99.90;;;;;;5008870;28;20034;-44
2022/12/06 09:09:16;;;;;;;26.70;11.43;;;4.50;99.90;;;;;;5009173;28;20478;-46
2022/12/06 09:11:42;;;;;;;27.93;11.13;;;4.50;99.90;;;;;;5008569;28;20387;-52
2022/12/06 09:14:13;;;;;;;26.23;11.43;;;4.50;99.90;;;;;;5008926;28;20057;-51
2022/12/06 09:16:42;;;;;;;26.97;10.33;;;4.60;99.90;;;;;;5008771;28;20348;-50
2022/12/06 09:19:08;;;;;;;24.60;10.40;;;4.60;99.90;;;;;;5009286;28;20038;-49
2022/12/06 09:21:34;;;;;;;22.60;9.90;;;4.60;99.90;;;;;;5008931;28;20099;-49
2022/12/06 09:24:00;;;;;;;17.83;8.57;;;4.60;99.90;;;;;;5008983;28;20116;-48
2022/12/06 09:26:27;;;;;;;18.53;9.33;;;4.60;99.90;;;;;;5008214;28;20025;-51
2022/12/06 09:28:54;;;;;;;18.80;8.93;;;4.60;99.90;;;;;;5006389;28;20069;-52
2022/12/06 09:31:20;;;;;;;17.73;9.10;;;4.60;99.90;;;;;;5008822;28;20025;-50
2022/12/06 09:33:46;;;;;;;19.23;9.23;;;4.60;99.90;;;;;;5008770;28;20025;-50
2022/12/06 09:36:27;;;;;;;21.10;9.57;;;4.60;99.90;;;;;;5008918;28;20115;-50
2022/12/06 09:38:58;;;;;;;21.13;8.23;;;4.60;99.90;;;;;;5008673;28;20041;-47
2022/12/06 09:41:39;;;;;;;19.40;9.20;;;4.60;99.90;;;;;;5009099;28;20033;-51
2022/12/06 09:44:11;;;;;;;19.03;8.60;;;4.60;99.90;;;;;;5009127;28;20129;-47
2022/12/06 09:46:53;;;;;;;21.60;9.50;;;4.60;99.90;;;;;;5008682;28;20046;-49
2022/12/06 09:49:28;;;;;;;24.67;10.60;;;4.60;99.90;;;;;;5008760;28;20363;-51
2022/12/06 09:52:06;;;;;;;21.33;9.33;;;4.60;99.90;;;;;;5008769;28;20513;-49
2022/12/06 09:55:02;;;;;;;25.27;10.23;;;4.60;99.90;;;;;;5008887;28;20026;-50
2022/12/06 09:57:28;;;;;;;22.90;9.03;;;4.60;99.90;;;;;;5007764;28;20034;-50
2022/12/06 10:00:07;;;;;;;19.37;9.60;;;4.70;99.90;;;;;;5008813;28;20112;-52
2022/12/06 10:02:49;;;;;;;16.87;8.17;;;4.70;99.90;;;;;;5008447;28;20092;-51
2022/12/06 10:05:30;;;;;;;17.23;7.67;;;4.70;99.90;;;;;;5010533;28;20108;-53
2022/12/06 10:07:56;;;;;;;15.13;7.90;;;4.70;99.90;;;;;;5028079;28;20042;-54
2022/12/06 10:10:56;;;;;;;14.40;7.80;;;4.80;99.90;;;;;;5018938;28;20049;-52
2022/12/06 10:13:40;;;;;;;16.93;7.37;;;4.80;99.90;;;;;;5007308;28;20026;-52
2022/12/06 10:16:06;;;;;;;16.37;7.57;;;4.90;99.90;;;;;;5005550;28;20432;-51
2022/12/06 10:18:37;;;;;;;15.90;7.60;;;4.90;99.90;;;;;;5011824;28;20041;-51
2022/12/06 10:21:21;;;;;;;16.87;7.13;;;5.00;99.90;;;;;;5014849;28;20037;-49
2022/12/06 10:23:54;;;;;;;21.53;7.73;;;5.00;99.90;;;;;;5005826;28;20037;-47
2022/12/06 10:26:36;;;;;;;18.73;8.70;;;5.00;99.90;;;;;;5006698;28;20022;-50
2022/12/06 10:29:17;;;;;;;18.00;9.10;;;5.00;99.90;;;;;;5005024;28;20030;-50
2022/12/06 10:31:54;;;;;;;18.07;9.00;;;5.00;99.90;;;;;;5007407;28;20030;-47
2022/12/06 10:34:42;;;;;;;21.50;10.57;;;5.00;99.90;;;;;;5007812;28;20022;-47
2022/12/06 10:37:22;;;;;;;21.17;10.17;;;5.10;99.90;;;;;;5017050;28;20076;-51
2022/12/06 10:39:54;;;;;;;25.70;12.00;;;5.20;99.90;;;;;;5011892;28;20087;-49
2022/12/06 10:42:25;;;;;;;24.37;11.63;;;5.30;99.90;;;;;;4990276;28;20049;-49
2022/12/06 10:44:58;;;;;;;23.80;11.20;;;5.40;99.90;;;;;;4975176;28;20155;-47
2022/12/06 10:47:31;;;;;;;21.80;11.30;;;5.40;99.90;;;;;;5009233;28;20510;-50
2022/12/06 10:50:01;;;;;;;24.53;10.60;;;5.50;99.90;;;;;;5011063;28;20064;-50
2022/12/06 10:52:47;;;;;;;18.50;10.20;;;5.50;99.90;;;;;;5011264;28;20034;-49
2022/12/06 10:55:33;;;;;;;15.97;8.83;;;5.60;99.90;;;;;;5010190;28;20462;-51
2022/12/06 10:58:01;;;;;;;15.20;7.50;;;5.60;99.90;;;;;;5009407;28;20469;-52
2022/12/06 11:00:33;;;;;;;18.30;7.85;;;5.60;99.90;;;;;;5010114;28;20028;-49
2022/12/06 11:03:17;;;;;;;14.30;7.37;;;5.50;99.90;;;;;;5010651;28;20486;-47
2022/12/06 11:05:48;;;;;;;16.07;6.73;;;5.50;99.90;;;;;;5009616;28;20054;-49
2022/12/06 11:08:27;;;;;;;14.87;7.07;;;5.40;99.90;;;;;;5010617;28;20037;-52
2022/12/06 11:10:55;;;;;;;13.67;6.90;;;5.40;99.90;;;;;;5025729;28;20079;-50
2022/12/06 11:13:41;;;;;;;11.33;5.77;;;5.30;99.90;;;;;;5029449;28;20029;-50
2022/12/06 11:16:21;;;;;;;9.70;5.27;;;5.30;99.90;;;;;;5016706;28;20026;-46
2022/12/06 11:18:48;;;;;;;10.47;4.93;;;5.40;99.90;;;;;;5010683;28;20038;-52
2022/12/06 11:21:46;;;;;;;9.47;4.50;;;5.40;99.90;;;;;;5010159;28;20034;-47
2022/12/06 11:24:24;;;;;;;13.43;4.90;;;5.40;99.90;;;;;;5010967;28;20034;-50
2022/12/06 11:27:03;;;;;;;11.27;5.30;;;5.30;99.90;;;;;;5007713;28;20030;-50
2022/12/06 11:29:29;;;;;;;12.15;5.60;;;5.30;99.90;;;;;;5008695;28;20530;-48
2022/12/06 11:32:00;;;;;;;12.23;5.63;;;5.20;99.90;;;;;;5010099;28;20041;-47
2022/12/06 11:34:31;;;;;;;15.30;6.10;;;5.30;99.90;;;;;;5009876;28;20190;-48
2022/12/06 11:36:58;;;;;;;14.47;7.00;;;5.30;99.90;;;;;;5007526;28;20038;-52
2022/12/06 11:39:25;;;;;;;17.40;8.10;;;5.40;99.90;;;;;;5010799;28;20033;-48
2022/12/06 11:41:54;;;;;;;16.30;8.47;;;5.40;99.90;;;;;;5008886;28;20486;-48
2022/12/06 11:44:28;;;;;;;18.27;8.63;;;5.60;99.90;;;;;;5010299;28;20022;-49
2022/12/06 11:46:57;;;;;;;17.90;8.13;;;5.60;99.90;;;;;;5008570;28;20042;-55
2022/12/06 11:49:44;;;;;;;15.40;7.60;;;5.60;99.90;;;;;;5009594;28;20030;-48
2022/12/06 11:52:27;;;;;;;12.20;6.00;;;5.70;99.90;;;;;;5010368;28;20092;-50
2022/12/06 11:54:57;;;;;;;12.83;6.10;;;5.70;99.90;;;;;;5010446;28;20117;-49
2022/12/06 11:57:28;;;;;;;14.80;6.90;;;5.70;99.90;;;;;;5008094;28;20041;-50
2022/12/06 12:00:19;;;;;;;12.33;6.80;;;5.80;99.90;;;;;;5010288;28;20482;-49
2022/12/06 12:02:46;;;;;;;13.97;7.10;;;6.00;99.90;;;;;;5010461;28;20042;-47
2022/12/06 12:05:15;;;;;;;13.17;7.20;;;6.10;99.90;;;;;;5010220;28;20058;-49
2022/12/06 12:07:44;;;;;;;11.40;6.60;;;6.30;99.90;;;;;;5009380;28;20453;-46
2022/12/06 12:10:29;;;;;;;11.57;6.75;;;6.40;99.90;;;;;;5019282;28;20033;-45
2022/12/06 12:15:49;;;;;;;13.97;7.47;;;6.30;99.90;;;;;;5030101;28;20045;-51
2022/12/06 12:18:26;;;;;;;14.23;7.30;;;6.40;99.90;;;;;;5029374;28;20036;-48
2022/12/06 12:20:53;;;;;;;11.57;6.90;;;6.40;99.90;;;;;;5029727;28;20033;-49
2022/12/06 12:23:35;;;;;;;14.47;6.23;;;6.40;99.90;;;;;;5029900;28;20033;-50
2022/12/06 12:26:03;;;;;;;11.93;6.07;;;6.50;99.90;;;;;;5029920;28;20371;-48
2022/12/06 12:28:32;;;;;;;12.33;6.23;;;6.70;99.90;;;;;;5027480;28;20057;-47
2022/12/06 12:31:17;;;;;;;12.35;5.60;;;6.80;99.90;;;;;;5029657;28;20076;-49
2022/12/06 12:33:42;;;;;;;13.07;6.67;;;6.90;99.90;;;;;;5029727;28;20398;-49
2022/12/06 12:36:16;;;;;;;16.30;7.27;;;6.70;99.90;;;;;;5029499;28;20105;-47
2022/12/06 12:39:00;;;;;;;13.07;6.17;;;6.70;99.90;;;;;;5028829;28;20037;-51
2022/12/06 12:41:28;;;;;;;8.47;4.83;;;7.50;99.90;;;;;;5029708;28;20029;-52
2022/12/06 12:44:02;;;;;;;6.17;3.40;;;7.60;99.90;;;;;;5028773;28;20041;-51
2022/12/06 12:46:29;;;;;;;9.63;4.10;;;7.80;99.90;;;;;;5029121;28;20026;-50
2022/12/06 12:49:15;;;;;;;9.50;5.03;;;7.90;99.90;;;;;;5029039;28;20026;-46
2022/12/06 12:51:40;;;;;;;7.83;4.77;;;8.20;99.90;;;;;;5029331;28;20406;-50
2022/12/06 12:54:22;;;;;;;7.37;3.80;;;8.80;99.90;;;;;;5028489;28;20041;-52
2022/12/06 12:56:48;;;;;;;11.50;4.50;;;9.10;99.90;;;;;;5026102;23;20046;-54
2022/12/06 12:59:17;;;;;;;8.57;3.50;;;9.00;99.90;;;;;;5009388;28;20463;-55
2022/12/06 13:01:50;;;;;;;7.60;3.45;;;8.70;99.90;;;;;;5009962;28;20096;-53
2022/12/06 13:04:30;;;;;;;5.18;3.10;;;8.70;99.90;;;;;;5010295;28;20053;-53
2022/12/06 13:07:24;;;;;;;7.40;3.30;;;9.00;99.90;;;;;;5008882;28;20132;-53
2022/12/06 13:09:59;;;;;;;5.63;3.30;;;9.50;99.90;;;;;;5015705;28;20049;-52
2022/12/06 13:12:47;;;;;;;7.40;3.30;;;9.50;99.90;;;;;;5026610;28;20029;-53
2022/12/06 13:15:35;;;;;;;6.50;4.05;;;8.90;99.90;;;;;;5029744;28;20049;-53
2022/12/06 13:18:16;;;;;;;6.95;3.33;;;8.20;99.90;;;;;;5029252;28;20044;-55
2022/12/06 13:20:43;;;;;;;4.82;2.90;;;8.00;99.90;;;;;;5028798;28;20041;-53
2022/12/06 13:23:17;;;;;;;6.20;3.43;;;8.00;99.90;;;;;;5029072;28;20455;-53